sensor_id;sensor_type;location;lat;lon;timestamp;temperature;humidity
1361;DHT22;674;45.552;-122.600;2024-02-23T00:01:47;13.40;1.00
1361;DHT22;674;45.552;-122.600;2024-02-23T00:04:15;13.50;1.00
1361;DHT22;674;45.552;-122.600;2024-02-23T00:06:46;13.50;1.00
1361;DHT22;674;45.552;-122.600;2024-02-23T00:09:15;13.50;1.00
1361;DHT22;674;45.552;-122.600;2024-02-23T00:11:44;13.40;1.00
1361;DHT22;674;45.552;-122.600;2024-02-23T00:14:13;13.40;1.00
1361;DHT22;674;45.552;-122.600;2024-02-23T00:16:41;13.40;1.00
1361;DHT22;674;45.552;-122.600;2024-02-23T00:19:10;13.40;1.00
1361;DHT22;674;45.552;-122.600;2024-02-23T00:21:39;13.40;1.00
1361;DHT22;674;45.552;-122.600;2024-02-23T00:24:08;13.40;1.00
1361;DHT22;674;45.552;-122.600;2024-02-23T00:26:36;13.30;1.00
1361;DHT22;674;45.552;-122.600;2024-02-23T00:29:05;13.30;1.00
1361;DHT22;674;45.552;-122.600;2024-02-23T00:31:33;13.30;1.00
1361;DHT22;674;45.552;-122.600;2024-02-23T00:34:02;13.20;1.00
1361;DHT22;674;45.552;-122.600;2024-02-23T00:36:31;13.20;1.00
1361;DHT22;674;45.552;-122.600;2024-02-23T00:38:59;13.20;1.00
1361;DHT22;674;45.552;-122.600;2024-02-23T00:41:28;13.10;1.00
1361;DHT22;674;45.552;-122.600;2024-02-23T00:43:56;13.10;1.00
1361;DHT22;674;45.552;-122.600;2024-02-23T00:46:25;13.00;1.00
1361;DHT22;674;45.552;-122.600;2024-02-23T00:48:54;12.90;1.00
1361;DHT22;674;45.552;-122.600;2024-02-23T00:51:22;12.90;1.00
1361;DHT22;674;45.552;-122.600;2024-02-23T00:53:51;12.80;1.00
1361;DHT22;674;45.552;-122.600;2024-02-23T00:56:23;12.70;1.00
1361;DHT22;674;45.552;-122.600;2024-02-23T00:59:02;12.60;1.00
1361;DHT22;674;45.552;-122.600;2024-02-23T01:01:30;12.60;1.00
1361;DHT22;674;45.552;-122.600;2024-02-23T01:04:00;12.40;1.00
1361;DHT22;674;45.552;-122.600;2024-02-23T01:06:28;12.30;1.00
1361;DHT22;674;45.552;-122.600;2024-02-23T01:08:57;12.20;1.00
1361;DHT22;674;45.552;-122.600;2024-02-23T01:11:25;12.20;1.00
1361;DHT22;674;45.552;-122.600;2024-02-23T01:13:54;12.10;1.00
1361;DHT22;674;45.552;-122.600;2024-02-23T01:16:23;12.10;1.00
1361;DHT22;674;45.552;-122.600;2024-02-23T01:18:51;12.00;1.00
1361;DHT22;674;45.552;-122.600;2024-02-23T01:21:20;11.90;1.00
1361;DHT22;674;45.552;-122.600;2024-02-23T01:23:48;11.80;1.00
1361;DHT22;674;45.552;-122.600;2024-02-23T01:26:17;11.70;1.00
1361;DHT22;674;45.552;-122.600;2024-02-23T01:28:45;11.70;1.00
1361;DHT22;674;45.552;-122.600;2024-02-23T01:31:14;11.60;1.00
1361;DHT22;674;45.552;-122.600;2024-02-23T01:33:42;11.60;1.00
1361;DHT22;674;45.552;-122.600;2024-02-23T01:36:11;11.50;1.00
1361;DHT22;674;45.552;-122.600;2024-02-23T01:38:40;11.40;1.00
1361;DHT22;674;45.552;-122.600;2024-02-23T01:41:11;11.30;1.00
1361;DHT22;674;45.552;-122.600;2024-02-23T01:43:40;11.20;1.00
1361;DHT22;674;45.552;-122.600;2024-02-23T01:46:09;11.10;1.00
1361;DHT22;674;45.552;-122.600;2024-02-23T01:48:37;11.00;1.00
1361;DHT22;674;45.552;-122.600;2024-02-23T01:51:06;10.90;1.00
1361;DHT22;674;45.552;-122.600;2024-02-23T01:53:34;10.70;1.00
1361;DHT22;674;45.552;-122.600;2024-02-23T01:56:04;10.60;1.00
1361;DHT22;674;45.552;-122.600;2024-02-23T01:58:35;10.50;1.00
1361;DHT22;674;45.552;-122.600;2024-02-23T02:01:04;10.40;1.00
1361;DHT22;674;45.552;-122.600;2024-02-23T02:03:34;10.30;1.00
1361;DHT22;674;45.552;-122.600;2024-02-23T02:06:10;10.30;1.00
1361;DHT22;674;45.552;-122.600;2024-02-23T02:08:38;10.20;1.00
1361;DHT22;674;45.552;-122.600;2024-02-23T02:11:07;10.10;1.00
1361;DHT22;674;45.552;-122.600;2024-02-23T02:13:36;10.10;1.00
1361;DHT22;674;45.552;-122.600;2024-02-23T02:16:04;10.00;1.00
1361;DHT22;674;45.552;-122.600;2024-02-23T02:18:34;9.80;1.00
1361;DHT22;674;45.552;-122.600;2024-02-23T02:21:02;9.60;1.00
1361;DHT22;674;45.552;-122.600;2024-02-23T02:23:31;9.60;1.00
1361;DHT22;674;45.552;-122.600;2024-02-23T02:26:00;9.60;1.00
1361;DHT22;674;45.552;-122.600;2024-02-23T02:28:28;9.70;1.00
1361;DHT22;674;45.552;-122.600;2024-02-23T02:30:57;9.40;1.00
1361;DHT22;674;45.552;-122.600;2024-02-23T02:33:26;9.30;1.00
1361;DHT22;674;45.552;-122.600;2024-02-23T02:35:54;9.30;1.00
1361;DHT22;674;45.552;-122.600;2024-02-23T02:38:23;9.20;1.00
1361;DHT22;674;45.552;-122.600;2024-02-23T02:40:52;9.10;1.00
1361;DHT22;674;45.552;-122.600;2024-02-23T02:43:20;9.10;1.00
1361;DHT22;674;45.552;-122.600;2024-02-23T02:45:49;9.10;1.00
1361;DHT22;674;45.552;-122.600;2024-02-23T02:48:18;9.00;1.00
1361;DHT22;674;45.552;-122.600;2024-02-23T02:50:47;8.70;1.00
1361;DHT22;674;45.552;-122.600;2024-02-23T02:53:18;8.90;1.00
1361;DHT22;674;45.552;-122.600;2024-02-23T02:55:47;8.80;1.00
1361;DHT22;674;45.552;-122.600;2024-02-23T02:58:16;9.00;1.00
1361;DHT22;674;45.552;-122.600;2024-02-23T03:00:44;8.70;1.00
1361;DHT22;674;45.552;-122.600;2024-02-23T03:03:13;8.90;1.00
1361;DHT22;674;45.552;-122.600;2024-02-23T03:05:41;8.60;1.00
1361;DHT22;674;45.552;-122.600;2024-02-23T03:08:10;8.60;1.00
1361;DHT22;674;45.552;-122.600;2024-02-23T03:10:39;8.50;1.00
1361;DHT22;674;45.552;-122.600;2024-02-23T03:13:08;8.30;1.00
1361;DHT22;674;45.552;-122.600;2024-02-23T03:15:36;8.40;1.00
1361;DHT22;674;45.552;-122.600;2024-02-23T03:18:05;8.30;1.00
1361;DHT22;674;45.552;-122.600;2024-02-23T03:20:35;8.30;1.00
1361;DHT22;674;45.552;-122.600;2024-02-23T03:23:03;8.20;1.00
1361;DHT22;674;45.552;-122.600;2024-02-23T03:25:32;8.20;1.00
1361;DHT22;674;45.552;-122.600;2024-02-23T03:28:01;7.90;1.00
1361;DHT22;674;45.552;-122.600;2024-02-23T03:30:30;8.10;1.00
1361;DHT22;674;45.552;-122.600;2024-02-23T03:33:03;8.10;1.00
1361;DHT22;674;45.552;-122.600;2024-02-23T03:35:32;8.00;1.00
1361;DHT22;674;45.552;-122.600;2024-02-23T03:38:00;7.80;1.00
1361;DHT22;674;45.552;-122.600;2024-02-23T03:40:29;7.80;1.00
1361;DHT22;674;45.552;-122.600;2024-02-23T03:42:57;7.80;1.00
1361;DHT22;674;45.552;-122.600;2024-02-23T03:45:26;7.60;1.00
1361;DHT22;674;45.552;-122.600;2024-02-23T03:47:55;7.60;1.00
1361;DHT22;674;45.552;-122.600;2024-02-23T03:50:23;7.60;1.00
1361;DHT22;674;45.552;-122.600;2024-02-23T03:52:52;7.50;1.00
1361;DHT22;674;45.552;-122.600;2024-02-23T03:55:20;7.60;1.00
1361;DHT22;674;45.552;-122.600;2024-02-23T03:57:50;7.60;1.00
1361;DHT22;674;45.552;-122.600;2024-02-23T04:00:18;7.60;1.00
1361;DHT22;674;45.552;-122.600;2024-02-23T04:02:49;7.60;1.00
1361;DHT22;674;45.552;-122.600;2024-02-23T04:05:17;7.50;1.00
1361;DHT22;674;45.552;-122.600;2024-02-23T04:07:47;7.40;1.00
1361;DHT22;674;45.552;-122.600;2024-02-23T04:10:15;7.40;1.00
1361;DHT22;674;45.552;-122.600;2024-02-23T04:12:45;7.30;1.00
1361;DHT22;674;45.552;-122.600;2024-02-23T04:15:14;7.30;1.00
1361;DHT22;674;45.552;-122.600;2024-02-23T04:17:43;7.20;1.00
1361;DHT22;674;45.552;-122.600;2024-02-23T04:20:11;7.20;1.90
1361;DHT22;674;45.552;-122.600;2024-02-23T04:22:40;7.20;1.00
1361;DHT22;674;45.552;-122.600;2024-02-23T04:25:08;7.20;1.00
1361;DHT22;674;45.552;-122.600;2024-02-23T04:27:37;7.20;1.00
1361;DHT22;674;45.552;-122.600;2024-02-23T04:30:06;7.20;1.00
1361;DHT22;674;45.552;-122.600;2024-02-23T04:32:35;7.20;1.00
1361;DHT22;674;45.552;-122.600;2024-02-23T04:35:04;7.20;1.60
1361;DHT22;674;45.552;-122.600;2024-02-23T04:37:33;7.10;6.00
1361;DHT22;674;45.552;-122.600;2024-02-23T04:40:03;7.00;11.20
1361;DHT22;674;45.552;-122.600;2024-02-23T04:42:33;7.00;14.00
1361;DHT22;674;45.552;-122.600;2024-02-23T04:45:02;7.30;14.60
1361;DHT22;674;45.552;-122.600;2024-02-23T04:47:31;7.00;13.10
1361;DHT22;674;45.552;-122.600;2024-02-23T04:50:00;6.90;11.50
1361;DHT22;674;45.552;-122.600;2024-02-23T04:52:31;6.90;13.10
1361;DHT22;674;45.552;-122.600;2024-02-23T04:54:59;6.80;20.20
1361;DHT22;674;45.552;-122.600;2024-02-23T04:57:28;6.90;23.80
1361;DHT22;674;45.552;-122.600;2024-02-23T04:59:56;6.80;27.10
1361;DHT22;674;45.552;-122.600;2024-02-23T05:02:25;6.70;30.80
1361;DHT22;674;45.552;-122.600;2024-02-23T05:04:57;6.90;32.00
1361;DHT22;674;45.552;-122.600;2024-02-23T05:07:26;6.80;32.90
1361;DHT22;674;45.552;-122.600;2024-02-23T05:09:54;6.90;31.20
1361;DHT22;674;45.552;-122.600;2024-02-23T05:12:23;7.00;34.40
1361;DHT22;674;45.552;-122.600;2024-02-23T05:14:52;6.90;28.10
1361;DHT22;674;45.552;-122.600;2024-02-23T05:17:20;6.70;27.80
1361;DHT22;674;45.552;-122.600;2024-02-23T05:19:49;6.80;27.10
1361;DHT22;674;45.552;-122.600;2024-02-23T05:22:17;6.70;22.50
1361;DHT22;674;45.552;-122.600;2024-02-23T05:24:47;6.70;19.40
1361;DHT22;674;45.552;-122.600;2024-02-23T05:27:16;6.70;19.50
1361;DHT22;674;45.552;-122.600;2024-02-23T05:29:44;6.70;15.80
1361;DHT22;674;45.552;-122.600;2024-02-23T05:32:13;6.60;17.00
1361;DHT22;674;45.552;-122.600;2024-02-23T05:34:41;6.60;20.40
1361;DHT22;674;45.552;-122.600;2024-02-23T05:37:10;6.60;19.70
1361;DHT22;674;45.552;-122.600;2024-02-23T05:39:38;6.60;20.10
1361;DHT22;674;45.552;-122.600;2024-02-23T05:42:07;6.80;22.50
1361;DHT22;674;45.552;-122.600;2024-02-23T05:44:36;6.90;16.90
1361;DHT22;674;45.552;-122.600;2024-02-23T05:47:05;6.70;14.30
1361;DHT22;674;45.552;-122.600;2024-02-23T05:49:33;6.90;19.40
1361;DHT22;674;45.552;-122.600;2024-02-23T05:52:03;6.60;13.20
1361;DHT22;674;45.552;-122.600;2024-02-23T05:54:31;6.60;16.30
1361;DHT22;674;45.552;-122.600;2024-02-23T05:57:00;6.60;28.70
1361;DHT22;674;45.552;-122.600;2024-02-23T05:59:29;6.90;31.80
1361;DHT22;674;45.552;-122.600;2024-02-23T06:01:58;6.80;36.40
1361;DHT22;674;45.552;-122.600;2024-02-23T06:04:26;6.90;40.80
1361;DHT22;674;45.552;-122.600;2024-02-23T06:06:55;6.90;43.90
1361;DHT22;674;45.552;-122.600;2024-02-23T06:09:24;6.90;39.30
1361;DHT22;674;45.552;-122.600;2024-02-23T06:11:53;7.00;35.30
1361;DHT22;674;45.552;-122.600;2024-02-23T06:14:21;7.20;29.60
1361;DHT22;674;45.552;-122.600;2024-02-23T06:16:51;7.10;26.60
1361;DHT22;674;45.552;-122.600;2024-02-23T06:19:20;7.30;19.80
1361;DHT22;674;45.552;-122.600;2024-02-23T06:21:48;7.50;16.60
1361;DHT22;674;45.552;-122.600;2024-02-23T06:24:18;7.30;2.20
1361;DHT22;674;45.552;-122.600;2024-02-23T06:26:47;7.30;1.00
1361;DHT22;674;45.552;-122.600;2024-02-23T06:29:17;7.70;1.00
1361;DHT22;674;45.552;-122.600;2024-02-23T06:31:45;7.10;1.00
1361;DHT22;674;45.552;-122.600;2024-02-23T06:34:17;7.40;1.00
1361;DHT22;674;45.552;-122.600;2024-02-23T06:36:46;7.20;1.00
1361;DHT22;674;45.552;-122.600;2024-02-23T06:39:14;7.20;1.00
1361;DHT22;674;45.552;-122.600;2024-02-23T06:41:46;7.20;1.00
1361;DHT22;674;45.552;-122.600;2024-02-23T06:44:15;7.20;1.00
1361;DHT22;674;45.552;-122.600;2024-02-23T06:46:43;7.00;1.00
1361;DHT22;674;45.552;-122.600;2024-02-23T06:49:12;6.90;1.00
1361;DHT22;674;45.552;-122.600;2024-02-23T06:51:41;6.80;1.00
1361;DHT22;674;45.552;-122.600;2024-02-23T06:54:10;7.00;1.00
1361;DHT22;674;45.552;-122.600;2024-02-23T06:56:38;6.70;1.00
1361;DHT22;674;45.552;-122.600;2024-02-23T06:59:07;6.50;1.50
1361;DHT22;674;45.552;-122.600;2024-02-23T07:01:36;6.20;18.50
1361;DHT22;674;45.552;-122.600;2024-02-23T07:04:07;6.20;29.50
1361;DHT22;674;45.552;-122.600;2024-02-23T07:06:35;6.10;30.50
1361;DHT22;674;45.552;-122.600;2024-02-23T07:09:05;6.00;40.30
1361;DHT22;674;45.552;-122.600;2024-02-23T07:11:34;6.10;55.20
1361;DHT22;674;45.552;-122.600;2024-02-23T07:14:02;6.20;64.80
1361;DHT22;674;45.552;-122.600;2024-02-23T07:16:31;6.20;56.30
1361;DHT22;674;45.552;-122.600;2024-02-23T07:19:00;6.20;54.50
1361;DHT22;674;45.552;-122.600;2024-02-23T07:21:28;5.80;56.10
1361;DHT22;674;45.552;-122.600;2024-02-23T07:23:57;5.90;80.50
1361;DHT22;674;45.552;-122.600;2024-02-23T07:26:26;6.00;91.80
1361;DHT22;674;45.552;-122.600;2024-02-23T07:28:57;6.30;94.90
1361;DHT22;674;45.552;-122.600;2024-02-23T07:31:26;6.30;94.70
1361;DHT22;674;45.552;-122.600;2024-02-23T07:33:55;6.10;95.30
1361;DHT22;674;45.552;-122.600;2024-02-23T07:36:24;6.10;95.20
1361;DHT22;674;45.552;-122.600;2024-02-23T07:38:52;6.30;94.60
1361;DHT22;674;45.552;-122.600;2024-02-23T07:41:21;6.10;91.40
1361;DHT22;674;45.552;-122.600;2024-02-23T07:43:49;6.20;89.60
1361;DHT22;674;45.552;-122.600;2024-02-23T07:46:18;6.20;85.50
1361;DHT22;674;45.552;-122.600;2024-02-23T07:48:47;6.00;81.10
1361;DHT22;674;45.552;-122.600;2024-02-23T07:51:16;5.90;77.60
1361;DHT22;674;45.552;-122.600;2024-02-23T07:53:44;6.20;75.20
1361;DHT22;674;45.552;-122.600;2024-02-23T07:56:13;6.20;65.20
1361;DHT22;674;45.552;-122.600;2024-02-23T07:58:42;5.90;64.90
1361;DHT22;674;45.552;-122.600;2024-02-23T08:01:10;5.80;67.90
1361;DHT22;674;45.552;-122.600;2024-02-23T08:03:39;6.00;64.70
1361;DHT22;674;45.552;-122.600;2024-02-23T08:06:10;5.90;61.60
1361;DHT22;674;45.552;-122.600;2024-02-23T08:08:42;5.90;52.40
1361;DHT22;674;45.552;-122.600;2024-02-23T08:11:11;5.60;50.70
1361;DHT22;674;45.552;-122.600;2024-02-23T08:13:39;5.30;58.00
1361;DHT22;674;45.552;-122.600;2024-02-23T08:16:08;5.40;65.20
1361;DHT22;674;45.552;-122.600;2024-02-23T08:18:37;5.60;72.10
1361;DHT22;674;45.552;-122.600;2024-02-23T08:21:06;5.60;68.10
1361;DHT22;674;45.552;-122.600;2024-02-23T08:23:35;5.30;67.10
1361;DHT22;674;45.552;-122.600;2024-02-23T08:26:04;5.10;62.80
1361;DHT22;674;45.552;-122.600;2024-02-23T08:28:32;5.00;73.00
1361;DHT22;674;45.552;-122.600;2024-02-23T08:31:01;5.00;79.70
1361;DHT22;674;45.552;-122.600;2024-02-23T08:33:29;5.30;85.80
1361;DHT22;674;45.552;-122.600;2024-02-23T08:35:58;5.00;85.70
1361;DHT22;674;45.552;-122.600;2024-02-23T08:38:26;5.30;82.00
1361;DHT22;674;45.552;-122.600;2024-02-23T08:40:55;4.90;87.90
1361;DHT22;674;45.552;-122.600;2024-02-23T08:43:24;4.70;90.60
1361;DHT22;674;45.552;-122.600;2024-02-23T08:45:53;4.80;96.00
1361;DHT22;674;45.552;-122.600;2024-02-23T08:48:21;4.70;96.90
1361;DHT22;674;45.552;-122.600;2024-02-23T08:50:50;4.80;99.90
1361;DHT22;674;45.552;-122.600;2024-02-23T08:53:18;5.00;99.90
1361;DHT22;674;45.552;-122.600;2024-02-23T08:55:47;4.70;99.90
1361;DHT22;674;45.552;-122.600;2024-02-23T08:58:16;4.70;99.90
1361;DHT22;674;45.552;-122.600;2024-02-23T09:00:45;4.60;99.90
1361;DHT22;674;45.552;-122.600;2024-02-23T09:03:13;5.00;99.90
1361;DHT22;674;45.552;-122.600;2024-02-23T09:05:42;4.60;99.90
1361;DHT22;674;45.552;-122.600;2024-02-23T09:08:11;4.60;99.90
1361;DHT22;674;45.552;-122.600;2024-02-23T09:10:39;4.40;99.90
1361;DHT22;674;45.552;-122.600;2024-02-23T09:13:08;4.40;99.90
1361;DHT22;674;45.552;-122.600;2024-02-23T09:15:36;4.40;99.90
1361;DHT22;674;45.552;-122.600;2024-02-23T09:18:05;4.40;99.90
1361;DHT22;674;45.552;-122.600;2024-02-23T09:20:34;4.90;99.90
1361;DHT22;674;45.552;-122.600;2024-02-23T09:23:05;4.70;99.90
1361;DHT22;674;45.552;-122.600;2024-02-23T09:25:33;4.60;99.90
1361;DHT22;674;45.552;-122.600;2024-02-23T09:28:02;4.70;99.90
1361;DHT22;674;45.552;-122.600;2024-02-23T09:30:30;4.60;99.90
1361;DHT22;674;45.552;-122.600;2024-02-23T09:32:59;4.70;99.90
1361;DHT22;674;45.552;-122.600;2024-02-23T09:35:28;4.40;99.90
1361;DHT22;674;45.552;-122.600;2024-02-23T09:37:57;4.40;99.90
1361;DHT22;674;45.552;-122.600;2024-02-23T09:40:25;4.40;99.90
1361;DHT22;674;45.552;-122.600;2024-02-23T09:42:58;4.60;99.90
1361;DHT22;674;45.552;-122.600;2024-02-23T09:45:27;4.40;99.90
1361;DHT22;674;45.552;-122.600;2024-02-23T09:47:57;4.10;99.90
1361;DHT22;674;45.552;-122.600;2024-02-23T09:50:28;4.10;99.90
1361;DHT22;674;45.552;-122.600;2024-02-23T09:52:58;4.10;99.90
1361;DHT22;674;45.552;-122.600;2024-02-23T09:55:27;4.40;99.90
1361;DHT22;674;45.552;-122.600;2024-02-23T09:57:58;4.10;99.90
1361;DHT22;674;45.552;-122.600;2024-02-23T10:00:27;4.10;99.90
1361;DHT22;674;45.552;-122.600;2024-02-23T10:02:56;4.10;99.90
1361;DHT22;674;45.552;-122.600;2024-02-23T10:05:30;4.10;99.90
1361;DHT22;674;45.552;-122.600;2024-02-23T10:08:04;4.30;99.90
1361;DHT22;674;45.552;-122.600;2024-02-23T10:10:34;4.10;99.90
1361;DHT22;674;45.552;-122.600;2024-02-23T10:13:05;4.10;99.90
1361;DHT22;674;45.552;-122.600;2024-02-23T10:15:34;4.10;99.90
1361;DHT22;674;45.552;-122.600;2024-02-23T10:18:02;4.10;99.90
1361;DHT22;674;45.552;-122.600;2024-02-23T10:20:31;3.80;99.90
1361;DHT22;674;45.552;-122.600;2024-02-23T10:23:00;4.00;99.90
1361;DHT22;674;45.552;-122.600;2024-02-23T10:25:29;3.90;99.90
1361;DHT22;674;45.552;-122.600;2024-02-23T10:27:58;3.80;99.90
1361;DHT22;674;45.552;-122.600;2024-02-23T10:30:28;3.70;99.90
1361;DHT22;674;45.552;-122.600;2024-02-23T10:32:57;3.70;99.90
1361;DHT22;674;45.552;-122.600;2024-02-23T10:35:26;3.60;99.90
1361;DHT22;674;45.552;-122.600;2024-02-23T10:37:55;3.50;99.90
1361;DHT22;674;45.552;-122.600;2024-02-23T10:40:25;3.50;99.90
1361;DHT22;674;45.552;-122.600;2024-02-23T10:42:57;3.50;99.90
1361;DHT22;674;45.552;-122.600;2024-02-23T10:45:27;3.60;99.90
1361;DHT22;674;45.552;-122.600;2024-02-23T10:47:55;3.50;99.90
1361;DHT22;674;45.552;-122.600;2024-02-23T10:50:26;3.50;99.90
1361;DHT22;674;45.552;-122.600;2024-02-23T10:52:55;3.70;99.90
1361;DHT22;674;45.552;-122.600;2024-02-23T10:55:27;3.50;99.90
1361;DHT22;674;45.552;-122.600;2024-02-23T10:57:56;3.60;99.90
1361;DHT22;674;45.552;-122.600;2024-02-23T11:00:26;3.40;99.90
1361;DHT22;674;45.552;-122.600;2024-02-23T11:02:55;3.50;99.90
1361;DHT22;674;45.552;-122.600;2024-02-23T11:05:24;3.50;99.90
1361;DHT22;674;45.552;-122.600;2024-02-23T11:07:56;3.50;99.90
1361;DHT22;674;45.552;-122.600;2024-02-23T11:10:25;3.30;99.90
1361;DHT22;674;45.552;-122.600;2024-02-23T11:13:00;3.30;99.90
1361;DHT22;674;45.552;-122.600;2024-02-23T11:15:30;3.30;99.90
1361;DHT22;674;45.552;-122.600;2024-02-23T11:18:01;3.30;99.90
1361;DHT22;674;45.552;-122.600;2024-02-23T11:20:37;3.40;99.90
1361;DHT22;674;45.552;-122.600;2024-02-23T11:23:13;3.50;99.90
1361;DHT22;674;45.552;-122.600;2024-02-23T11:25:43;3.30;99.90
1361;DHT22;674;45.552;-122.600;2024-02-23T11:28:23;3.20;99.90
1361;DHT22;674;45.552;-122.600;2024-02-23T11:30:53;3.30;99.90
1361;DHT22;674;45.552;-122.600;2024-02-23T11:33:35;3.20;99.90
1361;DHT22;674;45.552;-122.600;2024-02-23T11:36:08;3.30;99.90
1361;DHT22;674;45.552;-122.600;2024-02-23T11:38:39;3.00;99.90
1361;DHT22;674;45.552;-122.600;2024-02-23T11:41:09;3.00;99.90
1361;DHT22;674;45.552;-122.600;2024-02-23T11:43:39;3.00;99.90
1361;DHT22;674;45.552;-122.600;2024-02-23T11:46:08;3.20;99.90
1361;DHT22;674;45.552;-122.600;2024-02-23T11:48:36;3.30;99.90
1361;DHT22;674;45.552;-122.600;2024-02-23T11:51:05;2.90;99.90
1361;DHT22;674;45.552;-122.600;2024-02-23T11:53:37;3.00;99.90
1361;DHT22;674;45.552;-122.600;2024-02-23T11:56:06;3.10;99.90
1361;DHT22;674;45.552;-122.600;2024-02-23T11:58:35;3.00;99.90
1361;DHT22;674;45.552;-122.600;2024-02-23T12:01:03;3.10;99.90
1361;DHT22;674;45.552;-122.600;2024-02-23T12:03:33;3.10;99.90
1361;DHT22;674;45.552;-122.600;2024-02-23T12:06:02;3.00;99.90
1361;DHT22;674;45.552;-122.600;2024-02-23T12:08:31;2.90;99.90
1361;DHT22;674;45.552;-122.600;2024-02-23T12:11:09;2.90;99.90
1361;DHT22;674;45.552;-122.600;2024-02-23T12:13:39;3.10;99.90
1361;DHT22;674;45.552;-122.600;2024-02-23T12:16:08;3.00;99.90
1361;DHT22;674;45.552;-122.600;2024-02-23T12:18:37;3.00;99.90
1361;DHT22;674;45.552;-122.600;2024-02-23T12:21:07;2.90;99.90
1361;DHT22;674;45.552;-122.600;2024-02-23T12:23:46;3.00;99.90
1361;DHT22;674;45.552;-122.600;2024-02-23T12:26:17;3.00;99.90
1361;DHT22;674;45.552;-122.600;2024-02-23T12:28:46;3.00;99.90
1361;DHT22;674;45.552;-122.600;2024-02-23T12:31:14;2.90;99.90
1361;DHT22;674;45.552;-122.600;2024-02-23T12:33:43;3.10;99.90
1361;DHT22;674;45.552;-122.600;2024-02-23T12:36:16;3.10;99.90
1361;DHT22;674;45.552;-122.600;2024-02-23T12:38:45;3.10;99.90
1361;DHT22;674;45.552;-122.600;2024-02-23T12:41:14;3.10;99.90
1361;DHT22;674;45.552;-122.600;2024-02-23T12:43:42;2.80;99.90
1361;DHT22;674;45.552;-122.600;2024-02-23T12:46:14;2.80;99.90
1361;DHT22;674;45.552;-122.600;2024-02-23T12:48:43;2.60;99.90
1361;DHT22;674;45.552;-122.600;2024-02-23T12:51:12;2.70;99.90
1361;DHT22;674;45.552;-122.600;2024-02-23T12:53:41;2.60;99.90
1361;DHT22;674;45.552;-122.600;2024-02-23T12:56:12;2.70;99.90
1361;DHT22;674;45.552;-122.600;2024-02-23T12:58:44;2.80;99.90
1361;DHT22;674;45.552;-122.600;2024-02-23T13:01:13;2.70;99.90
1361;DHT22;674;45.552;-122.600;2024-02-23T13:03:41;2.60;99.90
1361;DHT22;674;45.552;-122.600;2024-02-23T13:06:10;2.70;99.90
1361;DHT22;674;45.552;-122.600;2024-02-23T13:08:39;2.80;99.90
1361;DHT22;674;45.552;-122.600;2024-02-23T13:11:08;2.70;99.90
1361;DHT22;674;45.552;-122.600;2024-02-23T13:13:37;2.60;99.90
1361;DHT22;674;45.552;-122.600;2024-02-23T13:16:08;2.90;99.90
1361;DHT22;674;45.552;-122.600;2024-02-23T13:18:37;2.70;99.90
1361;DHT22;674;45.552;-122.600;2024-02-23T13:21:05;2.60;99.90
1361;DHT22;674;45.552;-122.600;2024-02-23T13:23:34;2.70;99.90
1361;DHT22;674;45.552;-122.600;2024-02-23T13:26:04;2.70;99.90
1361;DHT22;674;45.552;-122.600;2024-02-23T13:28:33;2.80;99.90
1361;DHT22;674;45.552;-122.600;2024-02-23T13:31:01;2.50;99.90
1361;DHT22;674;45.552;-122.600;2024-02-23T13:33:30;2.70;99.90
1361;DHT22;674;45.552;-122.600;2024-02-23T13:35:59;2.50;99.90
1361;DHT22;674;45.552;-122.600;2024-02-23T13:38:28;2.70;99.90
1361;DHT22;674;45.552;-122.600;2024-02-23T13:40:56;2.70;99.90
1361;DHT22;674;45.552;-122.600;2024-02-23T13:43:25;2.60;99.90
1361;DHT22;674;45.552;-122.600;2024-02-23T13:45:53;2.80;99.90
1361;DHT22;674;45.552;-122.600;2024-02-23T13:48:22;2.80;99.90
1361;DHT22;674;45.552;-122.600;2024-02-23T13:50:52;2.80;99.90
1361;DHT22;674;45.552;-122.600;2024-02-23T13:53:21;2.70;99.90
1361;DHT22;674;45.552;-122.600;2024-02-23T13:55:49;2.60;99.90
1361;DHT22;674;45.552;-122.600;2024-02-23T13:58:18;2.80;99.90
1361;DHT22;674;45.552;-122.600;2024-02-23T14:00:47;2.60;99.90
1361;DHT22;674;45.552;-122.600;2024-02-23T14:03:18;2.70;99.90
1361;DHT22;674;45.552;-122.600;2024-02-23T14:05:47;2.70;99.90
1361;DHT22;674;45.552;-122.600;2024-02-23T14:08:16;2.80;99.90
1361;DHT22;674;45.552;-122.600;2024-02-23T14:10:45;2.60;99.90
1361;DHT22;674;45.552;-122.600;2024-02-23T14:13:13;2.50;99.90
1361;DHT22;674;45.552;-122.600;2024-02-23T14:15:42;2.80;99.90
1361;DHT22;674;45.552;-122.600;2024-02-23T14:18:11;2.70;99.90
1361;DHT22;674;45.552;-122.600;2024-02-23T14:20:40;2.50;99.90
1361;DHT22;674;45.552;-122.600;2024-02-23T14:23:08;2.70;99.90
1361;DHT22;674;45.552;-122.600;2024-02-23T14:25:37;2.80;99.90
1361;DHT22;674;45.552;-122.600;2024-02-23T14:28:06;2.70;99.90
1361;DHT22;674;45.552;-122.600;2024-02-23T14:30:34;2.80;99.90
1361;DHT22;674;45.552;-122.600;2024-02-23T14:33:03;2.70;99.90
1361;DHT22;674;45.552;-122.600;2024-02-23T14:35:32;2.80;99.90
1361;DHT22;674;45.552;-122.600;2024-02-23T14:38:00;2.70;99.90
1361;DHT22;674;45.552;-122.600;2024-02-23T14:40:29;2.80;99.90
1361;DHT22;674;45.552;-122.600;2024-02-23T14:42:58;2.70;99.90
1361;DHT22;674;45.552;-122.600;2024-02-23T14:45:27;2.90;99.90
1361;DHT22;674;45.552;-122.600;2024-02-23T14:47:56;3.00;99.90
1361;DHT22;674;45.552;-122.600;2024-02-23T14:50:26;3.20;99.90
1361;DHT22;674;45.552;-122.600;2024-02-23T14:52:55;3.20;99.90
1361;DHT22;674;45.552;-122.600;2024-02-23T14:55:24;3.40;99.90
1361;DHT22;674;45.552;-122.600;2024-02-23T14:57:53;3.20;99.90
1361;DHT22;674;45.552;-122.600;2024-02-23T15:00:22;3.20;99.90
1361;DHT22;674;45.552;-122.600;2024-02-23T15:02:50;3.70;99.90
1361;DHT22;674;45.552;-122.600;2024-02-23T15:05:19;3.50;99.90
1361;DHT22;674;45.552;-122.600;2024-02-23T15:07:48;3.50;99.90
1361;DHT22;674;45.552;-122.600;2024-02-23T15:10:17;3.60;99.90
1361;DHT22;674;45.552;-122.600;2024-02-23T15:12:46;3.60;99.90
1361;DHT22;674;45.552;-122.600;2024-02-23T15:15:14;3.50;99.90
1361;DHT22;674;45.552;-122.600;2024-02-23T15:17:43;3.60;99.90
1361;DHT22;674;45.552;-122.600;2024-02-23T15:20:14;3.50;99.90
1361;DHT22;674;45.552;-122.600;2024-02-23T15:22:43;3.60;99.90
1361;DHT22;674;45.552;-122.600;2024-02-23T15:25:13;3.60;99.90
1361;DHT22;674;45.552;-122.600;2024-02-23T15:27:43;3.50;99.90
1361;DHT22;674;45.552;-122.600;2024-02-23T15:30:11;3.60;99.90
1361;DHT22;674;45.552;-122.600;2024-02-23T15:32:40;3.50;99.90
1361;DHT22;674;45.552;-122.600;2024-02-23T15:35:09;3.60;99.90
1361;DHT22;674;45.552;-122.600;2024-02-23T15:37:37;3.80;99.90
1361;DHT22;674;45.552;-122.600;2024-02-23T15:40:06;4.10;99.90
1361;DHT22;674;45.552;-122.600;2024-02-23T15:42:36;3.60;99.90
1361;DHT22;674;45.552;-122.600;2024-02-23T15:45:05;3.60;99.90
1361;DHT22;674;45.552;-122.600;2024-02-23T15:47:36;3.40;99.90
1361;DHT22;674;45.552;-122.600;2024-02-23T15:50:05;3.50;99.90
1361;DHT22;674;45.552;-122.600;2024-02-23T15:52:54;3.50;99.90
1361;DHT22;674;45.552;-122.600;2024-02-23T15:55:23;3.60;99.90
1361;DHT22;674;45.552;-122.600;2024-02-23T15:57:52;3.80;99.90
1361;DHT22;674;45.552;-122.600;2024-02-23T16:00:20;3.80;99.90
1361;DHT22;674;45.552;-122.600;2024-02-23T16:02:49;3.80;99.90